sensor_id;sensor_type;location;lat;lon;timestamp;P1;durP1;ratioP1;P2;durP2;ratioP2
18812;SDS011;9534;51.140;6.296;2022-07-06T00:02:34;1.48;;;1.00;;
18812;SDS011;9534;51.140;6.296;2022-07-06T00:06:38;1.98;;;0.88;;
18812;SDS011;9534;51.140;6.296;2022-07-06T00:10:42;4.10;;;1.10;;
18812;SDS011;9534;51.140;6.296;2022-07-06T00:14:45;3.58;;;1.15;;
18812;SDS011;9534;51.140;6.296;2022-07-06T00:18:48;1.58;;;1.10;;
18812;SDS011;9534;51.140;6.296;2022-07-06T00:22:53;3.15;;;1.00;;
18812;SDS011;9534;51.140;6.296;2022-07-06T00:26:56;4.57;;;0.93;;
18812;SDS011;9534;51.140;6.296;2022-07-06T00:30:59;1.80;;;1.15;;
18812;SDS011;9534;51.140;6.296;2022-07-06T00:35:02;4.72;;;1.17;;
18812;SDS011;9534;51.140;6.296;2022-07-06T00:39:08;3.55;;;1.23;;
18812;SDS011;9534;51.140;6.296;2022-07-06T00:43:11;2.17;;;1.20;;
18812;SDS011;9534;51.140;6.296;2022-07-06T00:47:14;2.28;;;1.25;;
18812;SDS011;9534;51.140;6.296;2022-07-06T00:51:17;2.95;;;1.15;;
18812;SDS011;9534;51.140;6.296;2022-07-06T00:55:22;3.13;;;1.30;;
18812;SDS011;9534;51.140;6.296;2022-07-06T00:59:27;4.70;;;1.40;;
18812;SDS011;9534;51.140;6.296;2022-07-06T01:03:31;3.25;;;1.33;;
18812;SDS011;9534;51.140;6.296;2022-07-06T01:07:35;3.40;;;1.25;;
18812;SDS011;9534;51.140;6.296;2022-07-06T01:11:40;3.22;;;1.17;;
18812;SDS011;9534;51.140;6.296;2022-07-06T01:15:44;3.40;;;1.48;;
18812;SDS011;9534;51.140;6.296;2022-07-06T01:19:47;4.00;;;1.75;;
18812;SDS011;9534;51.140;6.296;2022-07-06T01:23:52;3.17;;;1.30;;
18812;SDS011;9534;51.140;6.296;2022-07-06T01:27:55;2.60;;;1.33;;
18812;SDS011;9534;51.140;6.296;2022-07-06T01:31:58;10.73;;;1.55;;
18812;SDS011;9534;51.140;6.296;2022-07-06T01:36:02;3.00;;;1.60;;
18812;SDS011;9534;51.140;6.296;2022-07-06T01:40:08;3.13;;;1.23;;
18812;SDS011;9534;51.140;6.296;2022-07-06T01:44:12;3.97;;;1.40;;
18812;SDS011;9534;51.140;6.296;2022-07-06T01:48:16;4.75;;;1.73;;
18812;SDS011;9534;51.140;6.296;2022-07-06T01:52:19;2.65;;;1.70;;
18812;SDS011;9534;51.140;6.296;2022-07-06T01:56:24;3.75;;;1.60;;
18812;SDS011;9534;51.140;6.296;2022-07-06T02:00:32;5.80;;;1.65;;
18812;SDS011;9534;51.140;6.296;2022-07-06T02:04:41;5.45;;;1.77;;
18812;SDS011;9534;51.140;6.296;2022-07-06T02:08:57;2.95;;;1.50;;
18812;SDS011;9534;51.140;6.296;2022-07-06T02:13:02;6.28;;;1.65;;
18812;SDS011;9534;51.140;6.296;2022-07-06T02:17:06;3.30;;;1.20;;
18812;SDS011;9534;51.140;6.296;2022-07-06T02:21:09;4.18;;;1.30;;
18812;SDS011;9534;51.140;6.296;2022-07-06T02:25:12;6.20;;;2.03;;
18812;SDS011;9534;51.140;6.296;2022-07-06T02:29:18;4.57;;;1.90;;
18812;SDS011;9534;51.140;6.296;2022-07-06T02:33:21;4.75;;;1.33;;
18812;SDS011;9534;51.140;6.296;2022-07-06T02:37:25;3.15;;;1.80;;
18812;SDS011;9534;51.140;6.296;2022-07-06T02:41:29;2.22;;;1.35;;
18812;SDS011;9534;51.140;6.296;2022-07-06T02:45:34;3.72;;;1.67;;
18812;SDS011;9534;51.140;6.296;2022-07-06T02:49:38;5.18;;;1.63;;
18812;SDS011;9534;51.140;6.296;2022-07-06T02:53:41;3.08;;;1.70;;
18812;SDS011;9534;51.140;6.296;2022-07-06T02:57:45;3.00;;;1.65;;
18812;SDS011;9534;51.140;6.296;2022-07-06T03:01:49;9.05;;;1.70;;
18812;SDS011;9534;51.140;6.296;2022-07-06T03:05:53;7.28;;;1.98;;
18812;SDS011;9534;51.140;6.296;2022-07-06T03:09:57;3.10;;;1.55;;
18812;SDS011;9534;51.140;6.296;2022-07-06T03:14:01;3.92;;;1.88;;
18812;SDS011;9534;51.140;6.296;2022-07-06T03:18:09;2.95;;;1.42;;
18812;SDS011;9534;51.140;6.296;2022-07-06T03:22:13;6.93;;;1.95;;
18812;SDS011;9534;51.140;6.296;2022-07-06T03:26:16;3.83;;;1.60;;
18812;SDS011;9534;51.140;6.296;2022-07-06T03:30:20;6.35;;;1.80;;
18812;SDS011;9534;51.140;6.296;2022-07-06T03:34:29;3.97;;;2.10;;
18812;SDS011;9534;51.140;6.296;2022-07-06T03:38:33;3.47;;;1.70;;
18812;SDS011;9534;51.140;6.296;2022-07-06T03:42:36;2.58;;;1.10;;
18812;SDS011;9534;51.140;6.296;2022-07-06T03:46:43;8.35;;;2.55;;
18812;SDS011;9534;51.140;6.296;2022-07-06T03:50:48;5.78;;;1.92;;
18812;SDS011;9534;51.140;6.296;2022-07-06T03:54:51;3.75;;;1.92;;
18812;SDS011;9534;51.140;6.296;2022-07-06T03:58:59;6.97;;;2.08;;
18812;SDS011;9534;51.140;6.296;2022-07-06T04:03:08;4.32;;;2.00;;
18812;SDS011;9534;51.140;6.296;2022-07-06T04:07:20;6.00;;;1.77;;
18812;SDS011;9534;51.140;6.296;2022-07-06T04:11:24;8.70;;;2.13;;
18812;SDS011;9534;51.140;6.296;2022-07-06T04:15:28;3.72;;;1.90;;
18812;SDS011;9534;51.140;6.296;2022-07-06T04:19:33;8.25;;;1.80;;
18812;SDS011;9534;51.140;6.296;2022-07-06T04:23:41;8.75;;;1.92;;
18812;SDS011;9534;51.140;6.296;2022-07-06T04:27:46;3.90;;;1.77;;
18812;SDS011;9534;51.140;6.296;2022-07-06T04:31:50;6.20;;;1.75;;
18812;SDS011;9534;51.140;6.296;2022-07-06T04:35:54;3.25;;;1.50;;
18812;SDS011;9534;51.140;6.296;2022-07-06T04:40:06;8.77;;;1.80;;
18812;SDS011;9534;51.140;6.296;2022-07-06T04:44:19;6.00;;;2.28;;
18812;SDS011;9534;51.140;6.296;2022-07-06T04:48:23;7.97;;;2.10;;
18812;SDS011;9534;51.140;6.296;2022-07-06T04:52:27;5.25;;;2.30;;
18812;SDS011;9534;51.140;6.296;2022-07-06T04:56:32;7.18;;;3.10;;
18812;SDS011;9534;51.140;6.296;2022-07-06T05:00:37;6.82;;;2.65;;
18812;SDS011;9534;51.140;6.296;2022-07-06T05:04:41;5.38;;;2.10;;
18812;SDS011;9534;51.140;6.296;2022-07-06T05:08:45;4.78;;;2.20;;
18812;SDS011;9534;51.140;6.296;2022-07-06T05:12:51;9.15;;;2.60;;
18812;SDS011;9534;51.140;6.296;2022-07-06T05:16:55;5.82;;;2.08;;
18812;SDS011;9534;51.140;6.296;2022-07-06T05:20:59;12.32;;;2.53;;
18812;SDS011;9534;51.140;6.296;2022-07-06T05:25:03;5.00;;;1.80;;
18812;SDS011;9534;51.140;6.296;2022-07-06T05:29:09;6.00;;;1.92;;
18812;SDS011;9534;51.140;6.296;2022-07-06T05:33:13;4.60;;;1.95;;
18812;SDS011;9534;51.140;6.296;2022-07-06T05:37:18;6.78;;;2.10;;
18812;SDS011;9534;51.140;6.296;2022-07-06T05:41:22;6.10;;;1.92;;
18812;SDS011;9534;51.140;6.296;2022-07-06T05:45:35;7.53;;;2.25;;
18812;SDS011;9534;51.140;6.296;2022-07-06T05:49:39;4.07;;;2.20;;
18812;SDS011;9534;51.140;6.296;2022-07-06T05:54:01;3.10;;;1.58;;
18812;SDS011;9534;51.140;6.296;2022-07-06T05:58:05;3.47;;;1.60;;
18812;SDS011;9534;51.140;6.296;2022-07-06T06:02:13;5.22;;;2.05;;
18812;SDS011;9534;51.140;6.296;2022-07-06T06:06:18;2.80;;;1.40;;
18812;SDS011;9534;51.140;6.296;2022-07-06T06:10:22;3.60;;;1.65;;
18812;SDS011;9534;51.140;6.296;2022-07-06T06:14:29;3.50;;;1.50;;
18812;SDS011;9534;51.140;6.296;2022-07-06T06:18:33;3.80;;;1.23;;
18812;SDS011;9534;51.140;6.296;2022-07-06T06:22:46;1.50;;;0.75;;
18812;SDS011;9534;51.140;6.296;2022-07-06T06:26:50;1.80;;;0.60;;
18812;SDS011;9534;51.140;6.296;2022-07-06T06:30:53;2.05;;;0.40;;
18812;SDS011;9534;51.140;6.296;2022-07-06T06:34:57;1.67;;;1.15;;
18812;SDS011;9534;51.140;6.296;2022-07-06T06:39:00;0.50;;;0.30;;
18812;SDS011;9534;51.140;6.296;2022-07-06T06:43:04;1.30;;;0.43;;
18812;SDS011;9534;51.140;6.296;2022-07-06T06:47:11;1.10;;;0.47;;
18812;SDS011;9534;51.140;6.296;2022-07-06T06:51:16;1.27;;;0.32;;
18812;SDS011;9534;51.140;6.296;2022-07-06T06:55:19;1.83;;;0.50;;
18812;SDS011;9534;51.140;6.296;2022-07-06T06:59:22;0.60;;;0.28;;
18812;SDS011;9534;51.140;6.296;2022-07-06T07:03:25;5.97;;;0.68;;
18812;SDS011;9534;51.140;6.296;2022-07-06T07:07:30;4.13;;;1.02;;
18812;SDS011;9534;51.140;6.296;2022-07-06T07:11:33;1.48;;;0.80;;
18812;SDS011;9534;51.140;6.296;2022-07-06T07:15:36;4.25;;;0.90;;
18812;SDS011;9534;51.140;6.296;2022-07-06T07:19:39;4.38;;;0.65;;
18812;SDS011;9534;51.140;6.296;2022-07-06T07:23:44;1.58;;;0.47;;
18812;SDS011;9534;51.140;6.296;2022-07-06T07:27:47;3.92;;;0.77;;
18812;SDS011;9534;51.140;6.296;2022-07-06T07:31:50;0.70;;;0.30;;
18812;SDS011;9534;51.140;6.296;2022-07-06T07:35:53;2.35;;;0.40;;
18812;SDS011;9534;51.140;6.296;2022-07-06T07:39:57;1.67;;;0.60;;
18812;SDS011;9534;51.140;6.296;2022-07-06T07:44:00;0.95;;;0.50;;
18812;SDS011;9534;51.140;6.296;2022-07-06T07:48:04;1.17;;;0.50;;
18812;SDS011;9534;51.140;6.296;2022-07-06T07:52:08;1.77;;;0.50;;
18812;SDS011;9534;51.140;6.296;2022-07-06T07:56:14;0.63;;;0.40;;
18812;SDS011;9534;51.140;6.296;2022-07-06T08:00:17;0.90;;;0.43;;
18812;SDS011;9534;51.140;6.296;2022-07-06T08:04:28;4.55;;;0.40;;
18812;SDS011;9534;51.140;6.296;2022-07-06T08:08:31;5.25;;;0.40;;
18812;SDS011;9534;51.140;6.296;2022-07-06T08:12:36;0.85;;;0.38;;
18812;SDS011;9534;51.140;6.296;2022-07-06T08:16:46;2.83;;;0.40;;
18812;SDS011;9534;51.140;6.296;2022-07-06T08:20:49;0.40;;;0.30;;
18812;SDS011;9534;51.140;6.296;2022-07-06T08:25:12;1.13;;;0.30;;
18812;SDS011;9534;51.140;6.296;2022-07-06T08:29:17;1.80;;;0.30;;
18812;SDS011;9534;51.140;6.296;2022-07-06T08:33:21;1.25;;;0.38;;
18812;SDS011;9534;51.140;6.296;2022-07-06T08:37:25;1.60;;;0.43;;
18812;SDS011;9534;51.140;6.296;2022-07-06T08:41:29;2.75;;;0.40;;
18812;SDS011;9534;51.140;6.296;2022-07-06T08:45:34;0.85;;;0.45;;
18812;SDS011;9534;51.140;6.296;2022-07-06T08:49:37;2.00;;;0.28;;
18812;SDS011;9534;51.140;6.296;2022-07-06T08:53:41;1.25;;;0.30;;
18812;SDS011;9534;51.140;6.296;2022-07-06T08:57:45;0.50;;;0.40;;
18812;SDS011;9534;51.140;6.296;2022-07-06T09:01:50;0.40;;;0.30;;
18812;SDS011;9534;51.140;6.296;2022-07-06T09:05:55;1.13;;;0.60;;
18812;SDS011;9534;51.140;6.296;2022-07-06T09:10:02;0.30;;;0.20;;
18812;SDS011;9534;51.140;6.296;2022-07-06T09:14:06;2.72;;;0.50;;
18812;SDS011;9534;51.140;6.296;2022-07-06T09:18:10;2.50;;;0.40;;
18812;SDS011;9534;51.140;6.296;2022-07-06T09:22:24;2.88;;;0.50;;
18812;SDS011;9534;51.140;6.296;2022-07-06T09:26:28;0.80;;;0.38;;
18812;SDS011;9534;51.140;6.296;2022-07-06T09:30:31;0.20;;;0.20;;
18812;SDS011;9534;51.140;6.296;2022-07-06T09:34:45;1.42;;;0.35;;
18812;SDS011;9534;51.140;6.296;2022-07-06T09:38:49;1.88;;;0.32;;
18812;SDS011;9534;51.140;6.296;2022-07-06T09:42:57;1.70;;;0.40;;
18812;SDS011;9534;51.140;6.296;2022-07-06T09:47:10;0.80;;;0.40;;
18812;SDS011;9534;51.140;6.296;2022-07-06T09:51:15;0.35;;;0.30;;
18812;SDS011;9534;51.140;6.296;2022-07-06T09:55:26;3.20;;;0.50;;
18812;SDS011;9534;51.140;6.296;2022-07-06T09:59:30;2.28;;;0.30;;
18812;SDS011;9534;51.140;6.296;2022-07-06T10:03:34;0.40;;;0.22;;
18812;SDS011;9534;51.140;6.296;2022-07-06T10:07:39;0.75;;;0.30;;
18812;SDS011;9534;51.140;6.296;2022-07-06T10:11:44;0.25;;;0.25;;
18812;SDS011;9534;51.140;6.296;2022-07-06T10:15:50;2.17;;;0.57;;
18812;SDS011;9534;51.140;6.296;2022-07-06T10:19:54;1.27;;;0.30;;
18812;SDS011;9534;51.140;6.296;2022-07-06T10:24:06;0.35;;;0.30;;
18812;SDS011;9534;51.140;6.296;2022-07-06T10:28:10;0.57;;;0.30;;
18812;SDS011;9534;51.140;6.296;2022-07-06T10:32:17;2.67;;;0.32;;
18812;SDS011;9534;51.140;6.296;2022-07-06T10:36:22;1.70;;;0.50;;
18812;SDS011;9534;51.140;6.296;2022-07-06T10:40:32;0.32;;;0.30;;
18812;SDS011;9534;51.140;6.296;2022-07-06T10:44:53;0.75;;;0.30;;
18812;SDS011;9534;51.140;6.296;2022-07-06T10:48:56;1.20;;;0.30;;
18812;SDS011;9534;51.140;6.296;2022-07-06T10:53:00;4.68;;;0.40;;
18812;SDS011;9534;51.140;6.296;2022-07-06T10:57:09;1.50;;;0.47;;
18812;SDS011;9534;51.140;6.296;2022-07-06T11:01:17;0.80;;;0.40;;
18812;SDS011;9534;51.140;6.296;2022-07-06T11:05:40;0.32;;;0.20;;
18812;SDS011;9534;51.140;6.296;2022-07-06T11:10:05;4.15;;;0.73;;
18812;SDS011;9534;51.140;6.296;2022-07-06T11:14:10;4.07;;;0.50;;
18812;SDS011;9534;51.140;6.296;2022-07-06T11:18:18;0.50;;;0.30;;
18812;SDS011;9534;51.140;6.296;2022-07-06T11:22:22;0.80;;;0.30;;
18812;SDS011;9534;51.140;6.296;2022-07-06T11:26:26;1.30;;;0.52;;
18812;SDS011;9534;51.140;6.296;2022-07-06T11:30:35;1.20;;;0.52;;
18812;SDS011;9534;51.140;6.296;2022-07-06T11:34:39;1.70;;;0.43;;
18812;SDS011;9534;51.140;6.296;2022-07-06T11:38:44;1.48;;;0.45;;
18812;SDS011;9534;51.140;6.296;2022-07-06T11:42:53;0.52;;;0.30;;
18812;SDS011;9534;51.140;6.296;2022-07-06T11:46:59;2.13;;;0.50;;
18812;SDS011;9534;51.140;6.296;2022-07-06T11:51:05;0.40;;;0.30;;
18812;SDS011;9534;51.140;6.296;2022-07-06T11:55:08;1.35;;;0.63;;
18812;SDS011;9534;51.140;6.296;2022-07-06T11:59:13;1.05;;;0.50;;
18812;SDS011;9534;51.140;6.296;2022-07-06T12:03:19;0.50;;;0.40;;
18812;SDS011;9534;51.140;6.296;2022-07-06T12:07:27;4.03;;;0.50;;
18812;SDS011;9534;51.140;6.296;2022-07-06T12:11:32;1.35;;;0.40;;
18812;SDS011;9534;51.140;6.296;2022-07-06T12:15:37;0.40;;;0.38;;
18812;SDS011;9534;51.140;6.296;2022-07-06T12:19:42;1.75;;;0.40;;
18812;SDS011;9534;51.140;6.296;2022-07-06T12:23:47;1.75;;;0.40;;
18812;SDS011;9534;51.140;6.296;2022-07-06T12:27:52;0.80;;;0.40;;
18812;SDS011;9534;51.140;6.296;2022-07-06T12:31:56;1.92;;;0.50;;
18812;SDS011;9534;51.140;6.296;2022-07-06T12:36:09;1.40;;;0.50;;
18812;SDS011;9534;51.140;6.296;2022-07-06T12:40:14;0.80;;;0.50;;
18812;SDS011;9534;51.140;6.296;2022-07-06T12:44:19;0.60;;;0.35;;
18812;SDS011;9534;51.140;6.296;2022-07-06T12:48:24;1.13;;;0.80;;
18812;SDS011;9534;51.140;6.296;2022-07-06T12:52:32;2.45;;;1.17;;
18812;SDS011;9534;51.140;6.296;2022-07-06T12:56:37;0.85;;;0.43;;
18812;SDS011;9534;51.140;6.296;2022-07-06T13:00:58;0.82;;;0.50;;
18812;SDS011;9534;51.140;6.296;2022-07-06T13:05:09;1.42;;;0.60;;
18812;SDS011;9534;51.140;6.296;2022-07-06T13:09:16;0.63;;;0.45;;
18812;SDS011;9534;51.140;6.296;2022-07-06T13:13:20;1.98;;;0.50;;
18812;SDS011;9534;51.140;6.296;2022-07-06T13:17:24;1.30;;;0.82;;
18812;SDS011;9534;51.140;6.296;2022-07-06T13:21:27;1.25;;;0.68;;
18812;SDS011;9534;51.140;6.296;2022-07-06T13:25:32;2.13;;;0.88;;
18812;SDS011;9534;51.140;6.296;2022-07-06T13:29:35;1.13;;;0.80;;
18812;SDS011;9534;51.140;6.296;2022-07-06T13:33:38;1.88;;;0.80;;
18812;SDS011;9534;51.140;6.296;2022-07-06T13:37:41;9.25;;;3.72;;
18812;SDS011;9534;51.140;6.296;2022-07-06T13:41:46;2.28;;;1.00;;
18812;SDS011;9534;51.140;6.296;2022-07-06T13:45:49;2.28;;;0.80;;
18812;SDS011;9534;51.140;6.296;2022-07-06T13:49:53;1.33;;;0.90;;
18812;SDS011;9534;51.140;6.296;2022-07-06T13:53:56;6.50;;;2.10;;
18812;SDS011;9534;51.140;6.296;2022-07-06T13:58:01;2.97;;;1.00;;
18812;SDS011;9534;51.140;6.296;2022-07-06T14:02:04;2.80;;;0.90;;
18812;SDS011;9534;51.140;6.296;2022-07-06T14:06:08;1.35;;;0.85;;
18812;SDS011;9534;51.140;6.296;2022-07-06T14:10:12;1.73;;;0.70;;
18812;SDS011;9534;51.140;6.296;2022-07-06T14:14:17;1.48;;;0.90;;
18812;SDS011;9534;51.140;6.296;2022-07-06T14:18:20;5.13;;;1.20;;
18812;SDS011;9534;51.140;6.296;2022-07-06T14:22:23;3.25;;;1.20;;
18812;SDS011;9534;51.140;6.296;2022-07-06T14:26:26;2.53;;;0.95;;
18812;SDS011;9534;51.140;6.296;2022-07-06T14:30:31;0.80;;;0.70;;
18812;SDS011;9534;51.140;6.296;2022-07-06T14:34:34;1.63;;;0.80;;
18812;SDS011;9534;51.140;6.296;2022-07-06T14:38:37;1.23;;;0.70;;
18812;SDS011;9534;51.140;6.296;2022-07-06T14:42:40;4.57;;;0.77;;
18812;SDS011;9534;51.140;6.296;2022-07-06T14:46:45;0.88;;;0.73;;
18812;SDS011;9534;51.140;6.296;2022-07-06T14:50:48;1.85;;;0.80;;
18812;SDS011;9534;51.140;6.296;2022-07-06T14:54:51;3.05;;;0.90;;
18812;SDS011;9534;51.140;6.296;2022-07-06T14:58:54;0.68;;;0.63;;
18812;SDS011;9534;51.140;6.296;2022-07-06T15:03:19;1.95;;;0.90;;
18812;SDS011;9534;51.140;6.296;2022-07-06T15:07:22;0.90;;;0.70;;
18812;SDS011;9534;51.140;6.296;2022-07-06T15:11:25;3.72;;;0.90;;
18812;SDS011;9534;51.140;6.296;2022-07-06T15:15:29;1.40;;;1.00;;
18812;SDS011;9534;51.140;6.296;2022-07-06T15:19:53;2.42;;;1.08;;
18812;SDS011;9534;51.140;6.296;2022-07-06T15:23:56;2.47;;;0.90;;
18812;SDS011;9534;51.140;6.296;2022-07-06T15:27:59;1.20;;;0.80;;
18812;SDS011;9534;51.140;6.296;2022-07-06T15:32:03;1.85;;;1.00;;
18812;SDS011;9534;51.140;6.296;2022-07-06T15:36:09;3.03;;;1.13;;
18812;SDS011;9534;51.140;6.296;2022-07-06T15:40:12;3.00;;;1.23;;
18812;SDS011;9534;51.140;6.296;2022-07-06T15:44:18;1.52;;;1.00;;
18812;SDS011;9534;51.140;6.296;2022-07-06T15:48:21;4.32;;;0.90;;
18812;SDS011;9534;51.140;6.296;2022-07-06T15:52:26;1.73;;;1.13;;
18812;SDS011;9534;51.140;6.296;2022-07-06T15:56:29;1.98;;;0.90;;
18812;SDS011;9534;51.140;6.296;2022-07-06T16:00:34;1.08;;;0.77;;
18812;SDS011;9534;51.140;6.296;2022-07-06T16:04:37;3.00;;;0.98;;
18812;SDS011;9534;51.140;6.296;2022-07-06T16:08:43;0.98;;;0.70;;
18812;SDS011;9534;51.140;6.296;2022-07-06T16:12:47;3.45;;;0.73;;
18812;SDS011;9534;51.140;6.296;2022-07-06T16:16:52;2.67;;;0.90;;
18812;SDS011;9534;51.140;6.296;2022-07-06T16:20:55;1.05;;;0.60;;
18812;SDS011;9534;51.140;6.296;2022-07-06T16:25:02;1.15;;;0.73;;
18812;SDS011;9534;51.140;6.296;2022-07-06T16:29:07;2.25;;;0.98;;
18812;SDS011;9534;51.140;6.296;2022-07-06T16:33:10;1.55;;;0.45;;
18812;SDS011;9534;51.140;6.296;2022-07-06T16:37:15;7.75;;;1.05;;
18812;SDS011;9534;51.140;6.296;2022-07-06T16:41:20;1.95;;;0.77;;
18812;SDS011;9534;51.140;6.296;2022-07-06T16:45:24;0.80;;;0.60;;
18812;SDS011;9534;51.140;6.296;2022-07-06T16:49:28;0.50;;;0.43;;
18812;SDS011;9534;51.140;6.296;2022-07-06T16:53:32;2.08;;;0.65;;
18812;SDS011;9534;51.140;6.296;2022-07-06T16:57:37;2.00;;;0.75;;
18812;SDS011;9534;51.140;6.296;2022-07-06T17:01:44;1.25;;;0.75;;
18812;SDS011;9534;51.140;6.296;2022-07-06T17:05:48;1.48;;;0.82;;
18812;SDS011;9534;51.140;6.296;2022-07-06T17:09:52;0.77;;;0.68;;
18812;SDS011;9534;51.140;6.296;2022-07-06T17:14:00;1.95;;;1.23;;
18812;SDS011;9534;51.140;6.296;2022-07-06T17:18:04;5.95;;;1.65;;
18812;SDS011;9534;51.140;6.296;2022-07-06T17:22:08;1.63;;;0.68;;
18812;SDS011;9534;51.140;6.296;2022-07-06T17:26:12;1.70;;;0.90;;
18812;SDS011;9534;51.140;6.296;2022-07-06T17:30:18;3.47;;;0.90;;
18812;SDS011;9534;51.140;6.296;2022-07-06T17:34:22;2.15;;;0.80;;
18812;SDS011;9534;51.140;6.296;2022-07-06T17:38:26;3.60;;;1.02;;
18812;SDS011;9534;51.140;6.296;2022-07-06T17:42:32;1.20;;;0.70;;
18812;SDS011;9534;51.140;6.296;2022-07-06T17:46:37;1.83;;;0.80;;
18812;SDS011;9534;51.140;6.296;2022-07-06T17:50:42;1.77;;;0.75;;
18812;SDS011;9534;51.140;6.296;2022-07-06T17:54:47;0.52;;;0.47;;
18812;SDS011;9534;51.140;6.296;2022-07-06T17:58:55;3.13;;;1.10;;
18812;SDS011;9534;51.140;6.296;2022-07-06T18:03:02;3.33;;;1.00;;
18812;SDS011;9534;51.140;6.296;2022-07-06T18:07:08;2.33;;;0.80;;
18812;SDS011;9534;51.140;6.296;2022-07-06T18:11:14;2.05;;;0.70;;
18812;SDS011;9534;51.140;6.296;2022-07-06T18:15:18;2.70;;;1.08;;
18812;SDS011;9534;51.140;6.296;2022-07-06T18:19:23;2.47;;;1.17;;
18812;SDS011;9534;51.140;6.296;2022-07-06T18:23:27;1.23;;;0.80;;
18812;SDS011;9534;51.140;6.296;2022-07-06T18:27:33;2.58;;;1.00;;
18812;SDS011;9534;51.140;6.296;2022-07-06T18:31:37;0.88;;;0.60;;
18812;SDS011;9534;51.140;6.296;2022-07-06T18:35:43;4.95;;;2.22;;
18812;SDS011;9534;51.140;6.296;2022-07-06T18:39:55;4.15;;;0.82;;
18812;SDS011;9534;51.140;6.296;2022-07-06T18:44:00;4.47;;;1.10;;
18812;SDS011;9534;51.140;6.296;2022-07-06T18:48:06;4.35;;;1.00;;
18812;SDS011;9534;51.140;6.296;2022-07-06T18:52:15;1.95;;;0.90;;
18812;SDS011;9534;51.140;6.296;2022-07-06T18:56:18;4.60;;;1.33;;
18812;SDS011;9534;51.140;6.296;2022-07-06T19:00:22;2.70;;;0.95;;
18812;SDS011;9534;51.140;6.296;2022-07-06T19:04:26;6.07;;;1.00;;
18812;SDS011;9534;51.140;6.296;2022-07-06T19:08:31;2.97;;;1.05;;
18812;SDS011;9534;51.140;6.296;2022-07-06T19:12:35;3.22;;;1.10;;
18812;SDS011;9534;51.140;6.296;2022-07-06T19:16:38;4.20;;;1.38;;
18812;SDS011;9534;51.140;6.296;2022-07-06T19:20:42;1.38;;;0.93;;
18812;SDS011;9534;51.140;6.296;2022-07-06T19:24:48;4.68;;;1.20;;
18812;SDS011;9534;51.140;6.296;2022-07-06T19:28:52;2.13;;;1.10;;
18812;SDS011;9534;51.140;6.296;2022-07-06T19:32:55;4.75;;;1.13;;
18812;SDS011;9534;51.140;6.296;2022-07-06T19:37:01;4.20;;;1.45;;
18812;SDS011;9534;51.140;6.296;2022-07-06T19:41:07;2.35;;;1.20;;
18812;SDS011;9534;51.140;6.296;2022-07-06T19:45:11;3.40;;;1.35;;
18812;SDS011;9534;51.140;6.296;2022-07-06T19:49:15;5.50;;;2.35;;
18812;SDS011;9534;51.140;6.296;2022-07-06T19:53:19;3.63;;;0.90;;
18812;SDS011;9534;51.140;6.296;2022-07-06T19:57:26;1.67;;;1.00;;
18812;SDS011;9534;51.140;6.296;2022-07-06T20:01:30;5.82;;;2.25;;
18812;SDS011;9534;51.140;6.296;2022-07-06T20:05:34;1.90;;;0.90;;
18812;SDS011;9534;51.140;6.296;2022-07-06T20:09:38;2.28;;;1.10;;
18812;SDS011;9534;51.140;6.296;2022-07-06T20:13:44;11.75;;;4.75;;
18812;SDS011;9534;51.140;6.296;2022-07-06T20:17:49;1.63;;;1.00;;
18812;SDS011;9534;51.140;6.296;2022-07-06T20:21:53;3.38;;;1.58;;
18812;SDS011;9534;51.140;6.296;2022-07-06T20:25:58;4.80;;;1.70;;
18812;SDS011;9534;51.140;6.296;2022-07-06T20:30:02;6.35;;;1.52;;
18812;SDS011;9534;51.140;6.296;2022-07-06T20:34:07;5.10;;;1.45;;
18812;SDS011;9534;51.140;6.296;2022-07-06T20:38:11;3.42;;;1.52;;
18812;SDS011;9534;51.140;6.296;2022-07-06T20:42:15;2.92;;;1.38;;
18812;SDS011;9534;51.140;6.296;2022-07-06T20:46:20;3.42;;;1.58;;
18812;SDS011;9534;51.140;6.296;2022-07-06T20:50:24;2.47;;;1.33;;
18812;SDS011;9534;51.140;6.296;2022-07-06T20:54:27;2.42;;;1.10;;
18812;SDS011;9534;51.140;6.296;2022-07-06T20:58:31;5.63;;;1.40;;
18812;SDS011;9534;51.140;6.296;2022-07-06T21:02:56;5.75;;;1.20;;
18812;SDS011;9534;51.140;6.296;2022-07-06T21:07:01;9.35;;;2.22;;
18812;SDS011;9534;51.140;6.296;2022-07-06T21:11:05;2.15;;;1.30;;
18812;SDS011;9534;51.140;6.296;2022-07-06T21:15:09;3.03;;;1.60;;
18812;SDS011;9534;51.140;6.296;2022-07-06T21:19:15;2.20;;;1.40;;
18812;SDS011;9534;51.140;6.296;2022-07-06T21:23:18;3.30;;;1.60;;
18812;SDS011;9534;51.140;6.296;2022-07-06T21:27:22;5.57;;;1.60;;
18812;SDS011;9534;51.140;6.296;2022-07-06T21:31:26;5.03;;;1.60;;
18812;SDS011;9534;51.140;6.296;2022-07-06T21:35:32;5.32;;;1.98;;
18812;SDS011;9534;51.140;6.296;2022-07-06T21:39:36;5.32;;;2.17;;
18812;SDS011;9534;51.140;6.296;2022-07-06T21:43:39;3.47;;;2.05;;
18812;SDS011;9534;51.140;6.296;2022-07-06T21:47:43;4.68;;;2.20;;
18812;SDS011;9534;51.140;6.296;2022-07-06T21:51:48;7.20;;;2.55;;
18812;SDS011;9534;51.140;6.296;2022-07-06T21:55:52;12.35;;;3.50;;
18812;SDS011;9534;51.140;6.296;2022-07-06T21:59:55;6.50;;;3.03;;
18812;SDS011;9534;51.140;6.296;2022-07-06T22:03:58;8.55;;;2.90;;
18812;SDS011;9534;51.140;6.296;2022-07-06T22:08:03;6.53;;;3.25;;
18812;SDS011;9534;51.140;6.296;2022-07-06T22:12:07;11.75;;;3.80;;
18812;SDS011;9534;51.140;6.296;2022-07-06T22:16:14;7.63;;;3.55;;
18812;SDS011;9534;51.140;6.296;2022-07-06T22:20:18;7.97;;;3.90;;
18812;SDS011;9534;51.140;6.296;2022-07-06T22:24:24;7.68;;;3.50;;
18812;SDS011;9534;51.140;6.296;2022-07-06T22:28:28;9.93;;;3.78;;
18812;SDS011;9534;51.140;6.296;2022-07-06T22:32:35;6.35;;;3.15;;
18812;SDS011;9534;51.140;6.296;2022-07-06T22:36:39;5.55;;;3.20;;
18812;SDS011;9534;51.140;6.296;2022-07-06T22:40:44;7.05;;;3.38;;
18812;SDS011;9534;51.140;6.296;2022-07-06T22:45:07;6.38;;;3.33;;
18812;SDS011;9534;51.140;6.296;2022-07-06T22:49:11;8.75;;;3.70;;
18812;SDS011;9534;51.140;6.296;2022-07-06T22:53:15;6.28;;;3.40;;
18812;SDS011;9534;51.140;6.296;2022-07-06T22:57:21;4.03;;;2.42;;
18812;SDS011;9534;51.140;6.296;2022-07-06T23:01:25;6.15;;;2.50;;
18812;SDS011;9534;51.140;6.296;2022-07-06T23:05:29;4.75;;;2.58;;
18812;SDS011;9534;51.140;6.296;2022-07-06T23:09:32;4.80;;;2.50;;
18812;SDS011;9534;51.140;6.296;2022-07-06T23:13:37;4.93;;;2.30;;
18812;SDS011;9534;51.140;6.296;2022-07-06T23:17:41;4.40;;;2.10;;
18812;SDS011;9534;51.140;6.296;2022-07-06T23:21:45;4.97;;;1.80;;
18812;SDS011;9534;51.140;6.296;2022-07-06T23:25:48;3.38;;;1.65;;
18812;SDS011;9534;51.140;6.296;2022-07-06T23:29:53;4.22;;;2.00;;
18812;SDS011;9534;51.140;6.296;2022-07-06T23:33:57;5.25;;;1.60;;
18812;SDS011;9534;51.140;6.296;2022-07-06T23:38:01;2.78;;;1.60;;
18812;SDS011;9534;51.140;6.296;2022-07-06T23:42:05;3.00;;;1.40;;
18812;SDS011;9534;51.140;6.296;2022-07-06T23:46:11;2.58;;;1.40;;
18812;SDS011;9534;51.140;6.296;2022-07-06T23:50:15;4.35;;;1.50;;
18812;SDS011;9534;51.140;6.296;2022-07-06T23:54:18;2.55;;;1.23;;
18812;SDS011;9534;51.140;6.296;2022-07-06T23:58:24;3.97;;;1.15;;
